sensor_id;sensor_type;location;lat;lon;timestamp;P1;durP1;ratioP1;P2;durP2;ratioP2
54657;SDS011;56972;43.886;20.354;2022-09-09T00:00:31;40.10;;;24.48;;
54657;SDS011;56972;43.886;20.354;2022-09-09T00:08:18;22.73;;;18.70;;
54657;SDS011;56972;43.886;20.354;2022-09-09T00:10:45;23.40;;;16.33;;
54657;SDS011;56972;43.886;20.354;2022-09-09T00:21:08;22.95;;;14.95;;
54657;SDS011;56972;43.886;20.354;2022-09-09T00:23:40;22.75;;;16.65;;
54657;SDS011;56972;43.886;20.354;2022-09-09T00:28:40;25.90;;;16.80;;
54657;SDS011;56972;43.886;20.354;2022-09-09T00:31:13;28.98;;;17.95;;
54657;SDS011;56972;43.886;20.354;2022-09-09T00:33:39;24.92;;;18.00;;
54657;SDS011;56972;43.886;20.354;2022-09-09T00:36:09;26.65;;;19.45;;
54657;SDS011;56972;43.886;20.354;2022-09-09T00:38:45;30.25;;;17.17;;
54657;SDS011;56972;43.886;20.354;2022-09-09T00:41:21;27.27;;;18.88;;
54657;SDS011;56972;43.886;20.354;2022-09-09T00:43:55;25.55;;;17.65;;
54657;SDS011;56972;43.886;20.354;2022-09-09T00:57:01;29.80;;;17.25;;
54657;SDS011;56972;43.886;20.354;2022-09-09T00:59:35;26.73;;;15.70;;
54657;SDS011;56972;43.886;20.354;2022-09-09T01:04:53;26.05;;;16.15;;
54657;SDS011;56972;43.886;20.354;2022-09-09T01:07:20;23.63;;;16.45;;
54657;SDS011;56972;43.886;20.354;2022-09-09T01:09:56;24.40;;;17.00;;
54657;SDS011;56972;43.886;20.354;2022-09-09T01:14:50;22.02;;;15.52;;
54657;SDS011;56972;43.886;20.354;2022-09-09T01:22:22;20.30;;;15.55;;
54657;SDS011;56972;43.886;20.354;2022-09-09T01:27:30;24.90;;;15.48;;
54657;SDS011;56972;43.886;20.354;2022-09-09T01:29:56;19.88;;;15.35;;
54657;SDS011;56972;43.886;20.354;2022-09-09T01:32:38;25.67;;;16.17;;
54657;SDS011;56972;43.886;20.354;2022-09-09T01:35:09;20.92;;;15.38;;
54657;SDS011;56972;43.886;20.354;2022-09-09T01:37:35;23.77;;;14.82;;
54657;SDS011;56972;43.886;20.354;2022-09-09T01:40:02;21.92;;;14.85;;
54657;SDS011;56972;43.886;20.354;2022-09-09T01:42:28;20.35;;;14.00;;
54657;SDS011;56972;43.886;20.354;2022-09-09T01:44:54;25.67;;;14.40;;
54657;SDS011;56972;43.886;20.354;2022-09-09T01:47:20;24.48;;;15.57;;
54657;SDS011;56972;43.886;20.354;2022-09-09T01:49:46;24.02;;;14.30;;
54657;SDS011;56972;43.886;20.354;2022-09-09T01:52:12;24.10;;;14.13;;
54657;SDS011;56972;43.886;20.354;2022-09-09T01:54:38;25.50;;;13.38;;
54657;SDS011;56972;43.886;20.354;2022-09-09T02:02:53;26.98;;;15.88;;
54657;SDS011;56972;43.886;20.354;2022-09-09T02:07:57;17.23;;;13.30;;
54657;SDS011;56972;43.886;20.354;2022-09-09T02:10:31;20.98;;;14.05;;
54657;SDS011;56972;43.886;20.354;2022-09-09T02:13:01;19.23;;;12.80;;
54657;SDS011;56972;43.886;20.354;2022-09-09T02:17:57;18.58;;;14.23;;
54657;SDS011;56972;43.886;20.354;2022-09-09T02:20:24;19.13;;;13.57;;
54657;SDS011;56972;43.886;20.354;2022-09-09T02:22:52;25.33;;;14.98;;
54657;SDS011;56972;43.886;20.354;2022-09-09T02:25:20;27.70;;;15.05;;
54657;SDS011;56972;43.886;20.354;2022-09-09T02:27:47;22.33;;;13.20;;
54657;SDS011;56972;43.886;20.354;2022-09-09T02:30:14;21.90;;;12.35;;
54657;SDS011;56972;43.886;20.354;2022-09-09T02:32:40;22.80;;;14.82;;
54657;SDS011;56972;43.886;20.354;2022-09-09T02:35:12;26.45;;;13.35;;
54657;SDS011;56972;43.886;20.354;2022-09-09T02:37:39;21.80;;;14.00;;
54657;SDS011;56972;43.886;20.354;2022-09-09T02:40:07;18.85;;;13.63;;
54657;SDS011;56972;43.886;20.354;2022-09-09T02:42:38;18.02;;;12.80;;
54657;SDS011;56972;43.886;20.354;2022-09-09T02:45:05;20.77;;;12.65;;
54657;SDS011;56972;43.886;20.354;2022-09-09T02:47:35;32.67;;;13.27;;
54657;SDS011;56972;43.886;20.354;2022-09-09T02:53:16;19.48;;;13.50;;
54657;SDS011;56972;43.886;20.354;2022-09-09T02:55:56;25.63;;;14.70;;
54657;SDS011;56972;43.886;20.354;2022-09-09T02:58:24;26.88;;;14.35;;
54657;SDS011;56972;43.886;20.354;2022-09-09T03:00:51;25.33;;;13.93;;
54657;SDS011;56972;43.886;20.354;2022-09-09T03:03:18;27.77;;;15.10;;
54657;SDS011;56972;43.886;20.354;2022-09-09T03:05:44;21.42;;;14.23;;
54657;SDS011;56972;43.886;20.354;2022-09-09T03:08:11;21.98;;;13.07;;
54657;SDS011;56972;43.886;20.354;2022-09-09T03:10:38;18.50;;;14.50;;
54657;SDS011;56972;43.886;20.354;2022-09-09T03:13:04;23.98;;;15.02;;
54657;SDS011;56972;43.886;20.354;2022-09-09T03:15:31;17.08;;;12.95;;
54657;SDS011;56972;43.886;20.354;2022-09-09T03:17:57;26.48;;;14.18;;
54657;SDS011;56972;43.886;20.354;2022-09-09T03:20:24;20.45;;;13.70;;
54657;SDS011;56972;43.886;20.354;2022-09-09T03:22:51;22.75;;;14.40;;
54657;SDS011;56972;43.886;20.354;2022-09-09T03:25:17;24.98;;;13.55;;
54657;SDS011;56972;43.886;20.354;2022-09-09T03:27:43;23.63;;;14.98;;
54657;SDS011;56972;43.886;20.354;2022-09-09T03:30:09;29.77;;;14.85;;
54657;SDS011;56972;43.886;20.354;2022-09-09T03:32:36;28.45;;;14.00;;
54657;SDS011;56972;43.886;20.354;2022-09-09T03:35:02;21.45;;;12.82;;
54657;SDS011;56972;43.886;20.354;2022-09-09T03:37:28;24.80;;;15.35;;
54657;SDS011;56972;43.886;20.354;2022-09-09T03:39:54;25.23;;;15.88;;
54657;SDS011;56972;43.886;20.354;2022-09-09T03:42:20;25.77;;;17.00;;
54657;SDS011;56972;43.886;20.354;2022-09-09T03:44:46;20.73;;;14.57;;
54657;SDS011;56972;43.886;20.354;2022-09-09T03:47:14;33.47;;;14.35;;
54657;SDS011;56972;43.886;20.354;2022-09-09T03:49:40;26.95;;;15.32;;
54657;SDS011;56972;43.886;20.354;2022-09-09T03:52:08;25.90;;;13.25;;
54657;SDS011;56972;43.886;20.354;2022-09-09T03:54:35;17.80;;;13.55;;
54657;SDS011;56972;43.886;20.354;2022-09-09T03:57:02;20.50;;;14.85;;
54657;SDS011;56972;43.886;20.354;2022-09-09T03:59:28;23.55;;;14.02;;
54657;SDS011;56972;43.886;20.354;2022-09-09T04:01:54;23.20;;;16.13;;
54657;SDS011;56972;43.886;20.354;2022-09-09T04:04:20;28.60;;;15.05;;
54657;SDS011;56972;43.886;20.354;2022-09-09T04:06:47;32.70;;;16.92;;
54657;SDS011;56972;43.886;20.354;2022-09-09T04:09:15;21.20;;;14.02;;
54657;SDS011;56972;43.886;20.354;2022-09-09T04:11:41;27.35;;;16.23;;
54657;SDS011;56972;43.886;20.354;2022-09-09T04:14:08;20.52;;;14.60;;
54657;SDS011;56972;43.886;20.354;2022-09-09T04:16:34;27.33;;;14.25;;
54657;SDS011;56972;43.886;20.354;2022-09-09T04:19:02;20.48;;;14.70;;
54657;SDS011;56972;43.886;20.354;2022-09-09T04:21:29;19.15;;;13.27;;
54657;SDS011;56972;43.886;20.354;2022-09-09T04:23:55;20.17;;;11.90;;
54657;SDS011;56972;43.886;20.354;2022-09-09T04:26:21;17.70;;;13.13;;
54657;SDS011;56972;43.886;20.354;2022-09-09T04:28:48;20.75;;;14.82;;
54657;SDS011;56972;43.886;20.354;2022-09-09T04:31:15;21.65;;;14.65;;
54657;SDS011;56972;43.886;20.354;2022-09-09T04:33:42;20.48;;;14.18;;
54657;SDS011;56972;43.886;20.354;2022-09-09T04:36:09;26.00;;;15.25;;
54657;SDS011;56972;43.886;20.354;2022-09-09T04:38:35;19.25;;;14.80;;
54657;SDS011;56972;43.886;20.354;2022-09-09T04:41:01;27.55;;;16.98;;
54657;SDS011;56972;43.886;20.354;2022-09-09T04:43:27;24.90;;;16.73;;
54657;SDS011;56972;43.886;20.354;2022-09-09T04:45:55;42.00;;;24.77;;
54657;SDS011;56972;43.886;20.354;2022-09-09T04:48:21;23.83;;;16.60;;
54657;SDS011;56972;43.886;20.354;2022-09-09T04:53:21;46.65;;;29.77;;
54657;SDS011;56972;43.886;20.354;2022-09-09T04:55:47;32.72;;;18.40;;
54657;SDS011;56972;43.886;20.354;2022-09-09T04:58:14;20.00;;;14.43;;
54657;SDS011;56972;43.886;20.354;2022-09-09T05:00:40;28.20;;;16.67;;
54657;SDS011;56972;43.886;20.354;2022-09-09T05:03:07;22.02;;;15.13;;
54657;SDS011;56972;43.886;20.354;2022-09-09T05:05:34;23.63;;;15.10;;
54657;SDS011;56972;43.886;20.354;2022-09-09T05:08:09;23.55;;;15.02;;
54657;SDS011;56972;43.886;20.354;2022-09-09T05:10:36;16.00;;;11.63;;
54657;SDS011;56972;43.886;20.354;2022-09-09T05:13:03;20.83;;;14.68;;
54657;SDS011;56972;43.886;20.354;2022-09-09T05:15:29;28.27;;;16.90;;
54657;SDS011;56972;43.886;20.354;2022-09-09T05:17:57;20.88;;;14.13;;
54657;SDS011;56972;43.886;20.354;2022-09-09T05:20:23;15.73;;;11.05;;
54657;SDS011;56972;43.886;20.354;2022-09-09T05:22:52;21.45;;;12.82;;
54657;SDS011;56972;43.886;20.354;2022-09-09T05:25:18;17.73;;;11.20;;
54657;SDS011;56972;43.886;20.354;2022-09-09T05:27:44;14.15;;;10.70;;
54657;SDS011;56972;43.886;20.354;2022-09-09T05:30:10;20.20;;;11.32;;
54657;SDS011;56972;43.886;20.354;2022-09-09T05:32:37;15.60;;;10.07;;
54657;SDS011;56972;43.886;20.354;2022-09-09T05:35:03;19.95;;;9.43;;
54657;SDS011;56972;43.886;20.354;2022-09-09T05:37:30;15.82;;;12.52;;
54657;SDS011;56972;43.886;20.354;2022-09-09T05:39:56;15.68;;;11.43;;
54657;SDS011;56972;43.886;20.354;2022-09-09T05:42:23;17.67;;;11.80;;
54657;SDS011;56972;43.886;20.354;2022-09-09T05:44:49;17.45;;;12.35;;
54657;SDS011;56972;43.886;20.354;2022-09-09T05:47:16;23.30;;;14.65;;
54657;SDS011;56972;43.886;20.354;2022-09-09T05:49:42;18.50;;;13.30;;
54657;SDS011;56972;43.886;20.354;2022-09-09T05:52:08;16.83;;;13.68;;
54657;SDS011;56972;43.886;20.354;2022-09-09T05:54:34;18.33;;;12.00;;
54657;SDS011;56972;43.886;20.354;2022-09-09T05:57:02;24.05;;;15.52;;
54657;SDS011;56972;43.886;20.354;2022-09-09T05:59:29;20.27;;;15.77;;
54657;SDS011;56972;43.886;20.354;2022-09-09T06:01:56;19.08;;;15.23;;
54657;SDS011;56972;43.886;20.354;2022-09-09T06:04:22;24.42;;;13.60;;
54657;SDS011;56972;43.886;20.354;2022-09-09T06:06:49;21.05;;;12.90;;
54657;SDS011;56972;43.886;20.354;2022-09-09T06:09:16;20.17;;;14.50;;
54657;SDS011;56972;43.886;20.354;2022-09-09T06:11:42;21.80;;;15.00;;
54657;SDS011;56972;43.886;20.354;2022-09-09T06:14:08;18.30;;;15.15;;
54657;SDS011;56972;43.886;20.354;2022-09-09T06:16:34;22.20;;;15.32;;
54657;SDS011;56972;43.886;20.354;2022-09-09T06:19:02;23.63;;;16.42;;
54657;SDS011;56972;43.886;20.354;2022-09-09T06:21:33;24.77;;;15.77;;
54657;SDS011;56972;43.886;20.354;2022-09-09T06:24:01;23.75;;;16.90;;
54657;SDS011;56972;43.886;20.354;2022-09-09T06:26:31;21.75;;;15.45;;
54657;SDS011;56972;43.886;20.354;2022-09-09T06:28:57;26.05;;;15.68;;
54657;SDS011;56972;43.886;20.354;2022-09-09T06:31:25;19.98;;;15.32;;
54657;SDS011;56972;43.886;20.354;2022-09-09T06:33:53;27.73;;;15.93;;
54657;SDS011;56972;43.886;20.354;2022-09-09T06:36:23;22.77;;;16.98;;
54657;SDS011;56972;43.886;20.354;2022-09-09T06:38:50;29.48;;;15.45;;
54657;SDS011;56972;43.886;20.354;2022-09-09T06:41:17;25.50;;;16.58;;
54657;SDS011;56972;43.886;20.354;2022-09-09T06:43:43;21.95;;;15.57;;
54657;SDS011;56972;43.886;20.354;2022-09-09T06:46:11;21.00;;;14.88;;
54657;SDS011;56972;43.886;20.354;2022-09-09T06:48:38;26.08;;;14.73;;
54657;SDS011;56972;43.886;20.354;2022-09-09T06:51:12;21.40;;;14.68;;
54657;SDS011;56972;43.886;20.354;2022-09-09T06:53:39;17.83;;;13.55;;
54657;SDS011;56972;43.886;20.354;2022-09-09T06:58:35;24.00;;;14.57;;
54657;SDS011;56972;43.886;20.354;2022-09-09T07:01:05;18.13;;;15.13;;
54657;SDS011;56972;43.886;20.354;2022-09-09T07:03:32;22.42;;;16.25;;
54657;SDS011;56972;43.886;20.354;2022-09-09T07:05:58;29.27;;;16.63;;
54657;SDS011;56972;43.886;20.354;2022-09-09T07:08:25;23.73;;;16.48;;
54657;SDS011;56972;43.886;20.354;2022-09-09T07:10:52;28.67;;;16.63;;
54657;SDS011;56972;43.886;20.354;2022-09-09T07:13:25;33.78;;;17.40;;
54657;SDS011;56972;43.886;20.354;2022-09-09T07:15:52;27.75;;;17.48;;
54657;SDS011;56972;43.886;20.354;2022-09-09T07:18:18;27.20;;;15.80;;
54657;SDS011;56972;43.886;20.354;2022-09-09T07:20:54;25.10;;;16.23;;
54657;SDS011;56972;43.886;20.354;2022-09-09T07:23:21;31.25;;;18.60;;
54657;SDS011;56972;43.886;20.354;2022-09-09T07:25:47;30.70;;;17.48;;
54657;SDS011;56972;43.886;20.354;2022-09-09T07:28:13;25.70;;;16.55;;
54657;SDS011;56972;43.886;20.354;2022-09-09T07:30:40;28.80;;;16.75;;
54657;SDS011;56972;43.886;20.354;2022-09-09T07:33:06;26.63;;;17.45;;
54657;SDS011;56972;43.886;20.354;2022-09-09T07:35:32;23.80;;;16.15;;
54657;SDS011;56972;43.886;20.354;2022-09-09T07:38:00;27.40;;;16.02;;
54657;SDS011;56972;43.886;20.354;2022-09-09T07:40:27;21.00;;;14.88;;
54657;SDS011;56972;43.886;20.354;2022-09-09T07:42:54;23.23;;;15.65;;
54657;SDS011;56972;43.886;20.354;2022-09-09T07:45:20;30.95;;;16.23;;
54657;SDS011;56972;43.886;20.354;2022-09-09T07:47:46;40.70;;;17.70;;
54657;SDS011;56972;43.886;20.354;2022-09-09T07:50:13;27.10;;;16.88;;
54657;SDS011;56972;43.886;20.354;2022-09-09T07:52:40;20.58;;;17.50;;
54657;SDS011;56972;43.886;20.354;2022-09-09T07:55:06;26.58;;;16.58;;
54657;SDS011;56972;43.886;20.354;2022-09-09T07:57:32;21.52;;;14.95;;
54657;SDS011;56972;43.886;20.354;2022-09-09T07:59:58;20.98;;;14.02;;
54657;SDS011;56972;43.886;20.354;2022-09-09T08:02:24;22.55;;;13.23;;
54657;SDS011;56972;43.886;20.354;2022-09-09T08:04:52;51.05;;;16.08;;
54657;SDS011;56972;43.886;20.354;2022-09-09T08:07:19;26.10;;;13.82;;
54657;SDS011;56972;43.886;20.354;2022-09-09T08:09:46;25.17;;;12.88;;
54657;SDS011;56972;43.886;20.354;2022-09-09T08:12:12;22.77;;;11.27;;
54657;SDS011;56972;43.886;20.354;2022-09-09T08:14:39;26.45;;;12.73;;
54657;SDS011;56972;43.886;20.354;2022-09-09T08:17:05;23.08;;;12.13;;
54657;SDS011;56972;43.886;20.354;2022-09-09T08:19:31;29.30;;;11.85;;
54657;SDS011;56972;43.886;20.354;2022-09-09T08:22:01;17.00;;;10.43;;
54657;SDS011;56972;43.886;20.354;2022-09-09T08:24:28;26.63;;;11.35;;
54657;SDS011;56972;43.886;20.354;2022-09-09T08:26:54;38.88;;;12.27;;
54657;SDS011;56972;43.886;20.354;2022-09-09T08:29:21;21.00;;;11.07;;
54657;SDS011;56972;43.886;20.354;2022-09-09T08:31:52;18.40;;;9.63;;
54657;SDS011;56972;43.886;20.354;2022-09-09T08:34:19;28.27;;;11.50;;
54657;SDS011;56972;43.886;20.354;2022-09-09T08:36:46;15.38;;;10.95;;
54657;SDS011;56972;43.886;20.354;2022-09-09T08:39:13;18.55;;;10.77;;
54657;SDS011;56972;43.886;20.354;2022-09-09T08:47:05;15.05;;;7.95;;
54657;SDS011;56972;43.886;20.354;2022-09-09T08:51:58;19.65;;;8.00;;
54657;SDS011;56972;43.886;20.354;2022-09-09T08:54:24;25.88;;;10.38;;
54657;SDS011;56972;43.886;20.354;2022-09-09T08:56:53;16.88;;;9.10;;
54657;SDS011;56972;43.886;20.354;2022-09-09T08:59:19;16.00;;;10.27;;
54657;SDS011;56972;43.886;20.354;2022-09-09T09:12:11;14.95;;;9.48;;
54657;SDS011;56972;43.886;20.354;2022-09-09T09:14:40;13.98;;;8.68;;
54657;SDS011;56972;43.886;20.354;2022-09-09T09:17:11;14.98;;;8.80;;
54657;SDS011;56972;43.886;20.354;2022-09-09T09:19:38;13.45;;;8.30;;
54657;SDS011;56972;43.886;20.354;2022-09-09T09:25:27;21.50;;;10.18;;
54657;SDS011;56972;43.886;20.354;2022-09-09T09:30:24;14.40;;;9.68;;
54657;SDS011;56972;43.886;20.354;2022-09-09T09:35:23;16.30;;;8.20;;
54657;SDS011;56972;43.886;20.354;2022-09-09T09:37:50;16.80;;;8.35;;
54657;SDS011;56972;43.886;20.354;2022-09-09T09:40:17;14.57;;;7.25;;
54657;SDS011;56972;43.886;20.354;2022-09-09T09:48:27;33.60;;;9.40;;
54657;SDS011;56972;43.886;20.354;2022-09-09T09:51:00;13.30;;;8.88;;
54657;SDS011;56972;43.886;20.354;2022-09-09T09:53:31;15.48;;;9.30;;
54657;SDS011;56972;43.886;20.354;2022-09-09T09:55:59;11.73;;;8.80;;
54657;SDS011;56972;43.886;20.354;2022-09-09T09:58:27;13.40;;;8.32;;
54657;SDS011;56972;43.886;20.354;2022-09-09T10:00:53;17.98;;;8.63;;
54657;SDS011;56972;43.886;20.354;2022-09-09T10:03:21;21.02;;;8.25;;
54657;SDS011;56972;43.886;20.354;2022-09-09T10:05:48;13.18;;;7.82;;
54657;SDS011;56972;43.886;20.354;2022-09-09T10:08:15;13.80;;;8.02;;
54657;SDS011;56972;43.886;20.354;2022-09-09T10:16:09;12.45;;;7.78;;
54657;SDS011;56972;43.886;20.354;2022-09-09T10:21:20;16.10;;;7.60;;
54657;SDS011;56972;43.886;20.354;2022-09-09T10:29:05;10.38;;;6.85;;
54657;SDS011;56972;43.886;20.354;2022-09-09T10:36:40;12.85;;;7.63;;
54657;SDS011;56972;43.886;20.354;2022-09-09T10:41:46;11.40;;;6.50;;
54657;SDS011;56972;43.886;20.354;2022-09-09T10:44:30;16.70;;;7.07;;
54657;SDS011;56972;43.886;20.354;2022-09-09T10:47:14;12.13;;;6.68;;
54657;SDS011;56972;43.886;20.354;2022-09-09T10:52:42;10.50;;;6.68;;
54657;SDS011;56972;43.886;20.354;2022-09-09T10:55:19;12.05;;;6.10;;
54657;SDS011;56972;43.886;20.354;2022-09-09T10:57:47;15.63;;;7.43;;
54657;SDS011;56972;43.886;20.354;2022-09-09T11:02:40;12.35;;;6.85;;
54657;SDS011;56972;43.886;20.354;2022-09-09T11:07:47;13.40;;;6.65;;
54657;SDS011;56972;43.886;20.354;2022-09-09T11:12:51;8.40;;;5.57;;
54657;SDS011;56972;43.886;20.354;2022-09-09T11:15:35;10.05;;;6.10;;
54657;SDS011;56972;43.886;20.354;2022-09-09T11:18:04;13.48;;;6.43;;
54657;SDS011;56972;43.886;20.354;2022-09-09T11:20:31;14.32;;;6.25;;
54657;SDS011;56972;43.886;20.354;2022-09-09T11:23:04;10.18;;;6.22;;
54657;SDS011;56972;43.886;20.354;2022-09-09T11:25:39;13.07;;;6.28;;
54657;SDS011;56972;43.886;20.354;2022-09-09T11:39:07;9.13;;;5.03;;
54657;SDS011;56972;43.886;20.354;2022-09-09T11:41:07;9.73;;;5.20;;
54657;SDS011;56972;43.886;20.354;2022-09-09T11:43:50;10.60;;;4.78;;
54657;SDS011;56972;43.886;20.354;2022-09-09T11:46:17;12.40;;;5.53;;
54657;SDS011;56972;43.886;20.354;2022-09-09T11:48:46;9.38;;;4.75;;
54657;SDS011;56972;43.886;20.354;2022-09-09T12:01:38;11.02;;;5.47;;
54657;SDS011;56972;43.886;20.354;2022-09-09T12:06:33;15.50;;;5.95;;
54657;SDS011;56972;43.886;20.354;2022-09-09T12:09:22;18.33;;;6.18;;
54657;SDS011;56972;43.886;20.354;2022-09-09T12:11:48;8.85;;;5.55;;
54657;SDS011;56972;43.886;20.354;2022-09-09T12:14:22;17.00;;;6.03;;
54657;SDS011;56972;43.886;20.354;2022-09-09T12:16:49;12.57;;;5.85;;
54657;SDS011;56972;43.886;20.354;2022-09-09T12:19:18;14.73;;;5.65;;
54657;SDS011;56972;43.886;20.354;2022-09-09T12:24:11;7.97;;;5.15;;
54657;SDS011;56972;43.886;20.354;2022-09-09T12:26:39;8.63;;;4.68;;
54657;SDS011;56972;43.886;20.354;2022-09-09T12:36:39;9.40;;;5.82;;
54657;SDS011;56972;43.886;20.354;2022-09-09T12:39:49;8.82;;;5.45;;
54657;SDS011;56972;43.886;20.354;2022-09-09T12:41:55;10.10;;;5.30;;
54657;SDS011;56972;43.886;20.354;2022-09-09T12:44:24;8.80;;;5.60;;
54657;SDS011;56972;43.886;20.354;2022-09-09T12:46:53;12.88;;;5.10;;
54657;SDS011;56972;43.886;20.354;2022-09-09T12:49:28;10.55;;;5.30;;
54657;SDS011;56972;43.886;20.354;2022-09-09T12:52:03;11.48;;;4.95;;
54657;SDS011;56972;43.886;20.354;2022-09-09T12:54:30;12.65;;;4.88;;
54657;SDS011;56972;43.886;20.354;2022-09-09T12:56:56;10.57;;;5.05;;
54657;SDS011;56972;43.886;20.354;2022-09-09T12:59:24;9.88;;;4.70;;
54657;SDS011;56972;43.886;20.354;2022-09-09T13:01:57;10.70;;;5.05;;
54657;SDS011;56972;43.886;20.354;2022-09-09T13:04:23;9.38;;;4.97;;
54657;SDS011;56972;43.886;20.354;2022-09-09T13:06:50;10.10;;;4.80;;
54657;SDS011;56972;43.886;20.354;2022-09-09T13:09:17;16.00;;;4.63;;
54657;SDS011;56972;43.886;20.354;2022-09-09T13:11:47;11.65;;;4.93;;
54657;SDS011;56972;43.886;20.354;2022-09-09T13:14:16;9.90;;;4.20;;
54657;SDS011;56972;43.886;20.354;2022-09-09T13:16:54;8.40;;;4.85;;
54657;SDS011;56972;43.886;20.354;2022-09-09T13:19:21;12.85;;;4.97;;
54657;SDS011;56972;43.886;20.354;2022-09-09T13:21:50;9.40;;;4.68;;
54657;SDS011;56972;43.886;20.354;2022-09-09T13:24:36;9.57;;;4.05;;
54657;SDS011;56972;43.886;20.354;2022-09-09T13:27:03;9.65;;;4.15;;
54657;SDS011;56972;43.886;20.354;2022-09-09T13:29:30;5.90;;;3.55;;
54657;SDS011;56972;43.886;20.354;2022-09-09T13:32:06;8.13;;;3.72;;
54657;SDS011;56972;43.886;20.354;2022-09-09T13:34:33;6.43;;;3.47;;
54657;SDS011;56972;43.886;20.354;2022-09-09T13:37:04;7.53;;;3.58;;
54657;SDS011;56972;43.886;20.354;2022-09-09T13:39:32;6.55;;;3.67;;
54657;SDS011;56972;43.886;20.354;2022-09-09T13:41:59;7.55;;;4.68;;
54657;SDS011;56972;43.886;20.354;2022-09-09T13:44:36;10.48;;;4.15;;
54657;SDS011;56972;43.886;20.354;2022-09-09T13:47:05;8.05;;;3.78;;
54657;SDS011;56972;43.886;20.354;2022-09-09T13:49:32;8.88;;;4.00;;
54657;SDS011;56972;43.886;20.354;2022-09-09T13:52:14;6.65;;;3.83;;
54657;SDS011;56972;43.886;20.354;2022-09-09T13:54:41;5.43;;;3.42;;
54657;SDS011;56972;43.886;20.354;2022-09-09T13:57:13;8.32;;;4.05;;
54657;SDS011;56972;43.886;20.354;2022-09-09T13:59:40;9.02;;;5.07;;
54657;SDS011;56972;43.886;20.354;2022-09-09T14:02:08;5.60;;;3.63;;
54657;SDS011;56972;43.886;20.354;2022-09-09T14:04:34;7.07;;;3.60;;
54657;SDS011;56972;43.886;20.354;2022-09-09T14:07:01;8.10;;;3.53;;
54657;SDS011;56972;43.886;20.354;2022-09-09T14:09:27;14.40;;;4.07;;
54657;SDS011;56972;43.886;20.354;2022-09-09T14:11:53;8.07;;;4.00;;
54657;SDS011;56972;43.886;20.354;2022-09-09T14:14:22;8.88;;;3.90;;
54657;SDS011;56972;43.886;20.354;2022-09-09T14:16:50;5.47;;;3.00;;
54657;SDS011;56972;43.886;20.354;2022-09-09T14:19:16;15.05;;;3.95;;
54657;SDS011;56972;43.886;20.354;2022-09-09T14:21:43;6.32;;;3.95;;
54657;SDS011;56972;43.886;20.354;2022-09-09T14:24:09;8.75;;;4.65;;
54657;SDS011;56972;43.886;20.354;2022-09-09T14:26:35;14.32;;;4.95;;
54657;SDS011;56972;43.886;20.354;2022-09-09T14:29:01;10.70;;;4.70;;
54657;SDS011;56972;43.886;20.354;2022-09-09T14:31:27;8.80;;;4.40;;
54657;SDS011;56972;43.886;20.354;2022-09-09T14:33:53;9.95;;;5.00;;
54657;SDS011;56972;43.886;20.354;2022-09-09T14:36:19;12.45;;;5.72;;
54657;SDS011;56972;43.886;20.354;2022-09-09T14:38:46;13.65;;;6.93;;
54657;SDS011;56972;43.886;20.354;2022-09-09T14:41:14;12.13;;;4.97;;
54657;SDS011;56972;43.886;20.354;2022-09-09T14:43:43;13.98;;;4.70;;
54657;SDS011;56972;43.886;20.354;2022-09-09T14:46:10;8.68;;;5.32;;
54657;SDS011;56972;43.886;20.354;2022-09-09T14:48:37;9.95;;;5.28;;
54657;SDS011;56972;43.886;20.354;2022-09-09T14:51:06;12.30;;;5.00;;
54657;SDS011;56972;43.886;20.354;2022-09-09T14:53:32;14.82;;;5.15;;
54657;SDS011;56972;43.886;20.354;2022-09-09T14:56:12;11.70;;;5.38;;
54657;SDS011;56972;43.886;20.354;2022-09-09T14:58:38;16.33;;;6.22;;
54657;SDS011;56972;43.886;20.354;2022-09-09T15:01:05;9.10;;;6.07;;
54657;SDS011;56972;43.886;20.354;2022-09-09T15:03:31;10.38;;;5.75;;
54657;SDS011;56972;43.886;20.354;2022-09-09T15:05:58;17.48;;;6.05;;
54657;SDS011;56972;43.886;20.354;2022-09-09T15:08:24;13.68;;;6.18;;
54657;SDS011;56972;43.886;20.354;2022-09-09T15:10:58;11.85;;;6.15;;
54657;SDS011;56972;43.886;20.354;2022-09-09T15:15:50;13.82;;;6.07;;
54657;SDS011;56972;43.886;20.354;2022-09-09T15:18:16;16.05;;;5.68;;
54657;SDS011;56972;43.886;20.354;2022-09-09T15:20:45;12.65;;;5.88;;
54657;SDS011;56972;43.886;20.354;2022-09-09T15:23:12;21.48;;;6.15;;
54657;SDS011;56972;43.886;20.354;2022-09-09T15:25:39;12.57;;;5.95;;
54657;SDS011;56972;43.886;20.354;2022-09-09T15:28:06;13.15;;;6.38;;
54657;SDS011;56972;43.886;20.354;2022-09-09T15:30:32;11.88;;;5.80;;
54657;SDS011;56972;43.886;20.354;2022-09-09T15:32:58;11.18;;;5.75;;
54657;SDS011;56972;43.886;20.354;2022-09-09T15:35:24;9.60;;;5.63;;
54657;SDS011;56972;43.886;20.354;2022-09-09T15:37:50;9.68;;;5.47;;
54657;SDS011;56972;43.886;20.354;2022-09-09T15:40:16;19.05;;;6.97;;
54657;SDS011;56972;43.886;20.354;2022-09-09T15:42:42;14.38;;;7.40;;
54657;SDS011;56972;43.886;20.354;2022-09-09T15:45:08;16.38;;;7.75;;
54657;SDS011;56972;43.886;20.354;2022-09-09T15:47:34;17.27;;;7.90;;
54657;SDS011;56972;43.886;20.354;2022-09-09T15:50:00;14.88;;;8.25;;
54657;SDS011;56972;43.886;20.354;2022-09-09T15:52:27;13.70;;;8.68;;
54657;SDS011;56972;43.886;20.354;2022-09-09T15:54:53;15.27;;;8.60;;
54657;SDS011;56972;43.886;20.354;2022-09-09T15:57:19;18.27;;;9.70;;
54657;SDS011;56972;43.886;20.354;2022-09-09T15:59:45;24.67;;;12.55;;
54657;SDS011;56972;43.886;20.354;2022-09-09T16:02:11;17.02;;;9.52;;
54657;SDS011;56972;43.886;20.354;2022-09-09T16:04:37;16.45;;;8.63;;
54657;SDS011;56972;43.886;20.354;2022-09-09T16:07:04;15.95;;;9.93;;
54657;SDS011;56972;43.886;20.354;2022-09-09T16:09:31;18.45;;;8.60;;
54657;SDS011;56972;43.886;20.354;2022-09-09T16:11:58;22.35;;;9.73;;
54657;SDS011;56972;43.886;20.354;2022-09-09T16:14:25;18.70;;;8.07;;
54657;SDS011;56972;43.886;20.354;2022-09-09T16:16:52;12.88;;;6.30;;
54657;SDS011;56972;43.886;20.354;2022-09-09T16:19:18;15.05;;;7.47;;
54657;SDS011;56972;43.886;20.354;2022-09-09T16:21:45;17.23;;;7.97;;
54657;SDS011;56972;43.886;20.354;2022-09-09T16:24:14;16.55;;;8.63;;
54657;SDS011;56972;43.886;20.354;2022-09-09T16:26:42;14.90;;;7.72;;
54657;SDS011;56972;43.886;20.354;2022-09-09T16:29:10;17.42;;;7.28;;
54657;SDS011;56972;43.886;20.354;2022-09-09T16:31:36;18.38;;;7.72;;
54657;SDS011;56972;43.886;20.354;2022-09-09T16:34:03;14.43;;;6.88;;
54657;SDS011;56972;43.886;20.354;2022-09-09T16:36:29;16.63;;;7.55;;
54657;SDS011;56972;43.886;20.354;2022-09-09T16:38:59;15.13;;;6.85;;
54657;SDS011;56972;43.886;20.354;2022-09-09T16:41:26;16.00;;;6.20;;
54657;SDS011;56972;43.886;20.354;2022-09-09T16:43:53;10.93;;;7.50;;
54657;SDS011;56972;43.886;20.354;2022-09-09T16:46:20;9.07;;;6.13;;
54657;SDS011;56972;43.886;20.354;2022-09-09T16:48:46;15.13;;;7.95;;
54657;SDS011;56972;43.886;20.354;2022-09-09T16:51:15;11.52;;;6.60;;
54657;SDS011;56972;43.886;20.354;2022-09-09T16:53:41;16.23;;;7.18;;
54657;SDS011;56972;43.886;20.354;2022-09-09T16:56:09;16.35;;;6.55;;
54657;SDS011;56972;43.886;20.354;2022-09-09T16:58:35;21.92;;;6.80;;